createdAt,value
2017-12-01T00:01:35.221Z,1.10
2017-12-01T00:04:01.193Z,1.20
2017-12-01T00:06:27.191Z,1.10
2017-12-01T00:08:53.149Z,1.10
2017-12-01T00:11:19.102Z,1.00
2017-12-01T00:13:45.097Z,1.00
2017-12-01T00:16:11.043Z,0.90
2017-12-01T00:18:37.016Z,0.80
2017-12-01T00:21:03.014Z,0.80
2017-12-01T00:23:28.960Z,0.70
2017-12-01T00:25:54.950Z,0.70
2017-12-01T00:28:21.693Z,0.60
2017-12-01T00:30:48.376Z,0.60
2017-12-01T00:33:14.356Z,0.60
2017-12-01T00:35:40.553Z,0.50
2017-12-01T00:38:06.534Z,0.50
2017-12-01T00:40:33.225Z,0.40
2017-12-01T00:42:59.201Z,0.40
2017-12-01T00:45:25.135Z,0.30
2017-12-01T00:47:51.123Z,0.30
2017-12-01T00:50:17.898Z,0.20
2017-12-01T00:52:43.861Z,0.10
2017-12-01T00:55:09.845Z,0.20
2017-12-01T00:57:36.554Z,0.10
2017-12-01T01:00:02.510Z,0.10
2017-12-01T01:02:28.491Z,0.10
2017-12-01T01:04:54.437Z,0.00
2017-12-01T01:07:20.446Z,-0.10
2017-12-01T01:09:47.130Z,-0.10
2017-12-01T01:12:13.073Z,-0.10
2017-12-01T01:14:39.049Z,-0.10
2017-12-01T01:17:04.986Z,-0.10
2017-12-01T01:19:30.989Z,-0.20
2017-12-01T01:21:56.934Z,-0.30
2017-12-01T01:24:22.965Z,-0.20
2017-12-01T01:26:48.946Z,-0.30
2017-12-01T01:29:14.917Z,-0.30
2017-12-01T01:31:40.898Z,-0.30
2017-12-01T01:34:06.866Z,-0.30
2017-12-01T01:36:32.837Z,-0.30
2017-12-01T01:38:58.793Z,-0.20
2017-12-01T01:41:24.769Z,-0.20
2017-12-01T01:43:51.477Z,-0.10
2017-12-01T01:46:17.492Z,-0.20
2017-12-01T01:48:43.618Z,-0.10
2017-12-01T01:51:09.550Z,-0.10
2017-12-01T01:53:35.493Z,-0.20
2017-12-01T01:56:01.469Z,-0.10
2017-12-01T01:58:27.488Z,0.00
2017-12-01T02:00:53.517Z,0.00
2017-12-01T02:03:19.583Z,0.00
2017-12-01T02:05:45.541Z,0.00
2017-12-01T02:08:11.516Z,0.10
2017-12-01T02:10:37.482Z,0.10
2017-12-01T02:13:03.441Z,0.20
2017-12-01T02:15:29.436Z,0.20
2017-12-01T02:17:55.409Z,0.20
2017-12-01T02:20:22.200Z,0.20
2017-12-01T02:22:48.164Z,0.20
2017-12-01T02:25:14.172Z,0.30
2017-12-01T02:27:40.174Z,0.30
2017-12-01T02:30:06.897Z,0.40
2017-12-01T02:32:32.894Z,0.40
2017-12-01T02:34:58.894Z,0.40
2017-12-01T02:37:25.681Z,0.50
2017-12-01T02:39:51.711Z,0.40
2017-12-01T02:42:17.673Z,0.50
2017-12-01T02:44:43.665Z,0.50
2017-12-01T02:47:10.415Z,0.50
2017-12-01T02:49:37.136Z,0.60
2017-12-01T02:52:03.148Z,0.50
2017-12-01T02:54:29.102Z,0.60
2017-12-01T02:56:55.092Z,0.60
2017-12-01T02:59:21.159Z,0.60
2017-12-01T03:01:47.146Z,0.50
2017-12-01T03:04:13.927Z,0.60
2017-12-01T03:06:39.964Z,0.60
2017-12-01T03:09:05.970Z,0.60
2017-12-01T03:11:32.678Z,0.70
2017-12-01T03:13:58.639Z,0.70
2017-12-01T03:16:24.640Z,0.60
2017-12-01T03:18:50.610Z,0.70
2017-12-01T03:21:16.609Z,0.60
2017-12-01T03:23:42.597Z,0.50
2017-12-01T03:26:08.576Z,0.60
2017-12-01T03:28:34.573Z,0.60
2017-12-01T03:31:00.513Z,0.60
2017-12-01T03:33:27.194Z,0.60
2017-12-01T03:35:53.196Z,0.60
2017-12-01T03:38:19.180Z,0.70
2017-12-01T03:40:45.206Z,0.60
2017-12-01T03:43:11.152Z,0.70
2017-12-01T03:45:37.153Z,0.60
2017-12-01T03:48:03.893Z,0.50
2017-12-01T03:50:29.941Z,0.40
2017-12-01T03:52:56.649Z,0.50
2017-12-01T03:55:22.624Z,0.50
2017-12-01T03:57:49.394Z,0.50
2017-12-01T04:00:16.120Z,0.50
2017-12-01T04:02:42.113Z,0.50
2017-12-01T04:05:08.081Z,0.40
2017-12-01T04:07:34.091Z,0.40
2017-12-01T04:10:00.031Z,0.40
2017-12-01T04:12:26.040Z,0.30
2017-12-01T04:14:52.061Z,0.40
2017-12-01T04:17:19.109Z,0.40
2017-12-01T04:19:45.972Z,0.40
2017-12-01T04:22:12.670Z,0.40
2017-12-01T04:24:38.674Z,0.40
2017-12-01T04:27:04.637Z,0.40
2017-12-01T04:29:30.620Z,0.40
2017-12-01T04:31:56.581Z,0.50
2017-12-01T04:34:23.416Z,0.40
2017-12-01T04:36:50.158Z,0.40
2017-12-01T04:39:16.136Z,0.40
2017-12-01T04:41:42.136Z,0.40
2017-12-01T04:44:08.164Z,0.50
2017-12-01T04:46:34.120Z,0.60
2017-12-01T04:49:00.864Z,0.60
2017-12-01T04:51:26.897Z,0.60
2017-12-01T04:53:53.648Z,0.60
2017-12-01T04:56:19.664Z,0.60
2017-12-01T04:58:45.665Z,0.60
2017-12-01T05:01:11.640Z,0.60
2017-12-01T05:03:37.600Z,0.60
2017-12-01T05:06:03.685Z,0.70
2017-12-01T05:08:29.668Z,0.70
2017-12-01T05:10:55.628Z,0.70
2017-12-01T05:13:21.665Z,0.70
2017-12-01T05:15:48.367Z,0.70
2017-12-01T05:18:14.324Z,0.70
2017-12-01T05:20:40.321Z,0.80
2017-12-01T05:23:06.408Z,0.80
2017-12-01T05:25:32.357Z,0.80
2017-12-01T05:27:59.101Z,0.80
2017-12-01T05:30:25.069Z,0.80
2017-12-01T05:32:51.084Z,0.80
2017-12-01T05:35:17.784Z,0.80
2017-12-01T05:37:43.728Z,0.80
2017-12-01T05:40:09.717Z,0.90
2017-12-01T05:42:36.467Z,0.90
2017-12-01T05:45:03.219Z,0.90
2017-12-01T05:47:29.969Z,0.90
2017-12-01T05:49:56.721Z,0.90
2017-12-01T05:52:23.519Z,0.90
2017-12-01T05:54:49.616Z,0.90
2017-12-01T05:57:15.605Z,0.90
2017-12-01T05:59:41.604Z,0.90
2017-12-01T06:02:08.422Z,1.00
2017-12-01T06:04:34.389Z,1.00
2017-12-01T06:07:01.098Z,1.00
2017-12-01T06:09:27.064Z,1.00
2017-12-01T06:11:53.042Z,1.00
2017-12-01T06:14:19.082Z,1.00
2017-12-01T06:16:45.049Z,1.00
2017-12-01T06:19:11.008Z,1.00
2017-12-01T06:21:37.684Z,1.00
2017-12-01T06:24:03.717Z,1.00
2017-12-01T06:26:29.723Z,1.00
2017-12-01T06:28:57.165Z,1.00
2017-12-01T06:31:23.380Z,1.00
2017-12-01T06:33:49.340Z,1.00
2017-12-01T06:36:15.340Z,1.00
2017-12-01T06:38:41.301Z,1.00
2017-12-01T06:41:07.274Z,1.10
2017-12-01T06:43:33.309Z,1.20
2017-12-01T06:45:59.280Z,1.30
2017-12-01T06:48:25.296Z,1.40
2017-12-01T06:50:52.005Z,1.40
2017-12-01T06:53:18.100Z,1.30
2017-12-01T06:55:44.779Z,1.30
2017-12-01T06:58:10.776Z,1.30
2017-12-01T07:00:36.741Z,1.40
2017-12-01T07:03:02.798Z,1.30
2017-12-01T07:05:28.832Z,1.20
2017-12-01T07:07:54.788Z,1.20
2017-12-01T07:10:20.787Z,1.20
2017-12-01T07:12:46.793Z,1.10
2017-12-01T07:15:12.776Z,1.20
2017-12-01T07:17:38.793Z,1.20
2017-12-01T07:20:04.838Z,1.10
2017-12-01T07:22:30.841Z,1.10
2017-12-01T07:24:57.573Z,1.10
2017-12-01T07:27:23.653Z,1.10
2017-12-01T07:29:50.421Z,0.90
2017-12-01T07:32:16.433Z,0.90
2017-12-01T07:34:43.152Z,0.90
2017-12-01T07:37:09.157Z,0.90
2017-12-01T07:39:35.108Z,0.90
2017-12-01T07:42:01.102Z,0.90
2017-12-01T07:44:33.961Z,0.70
2017-12-01T07:46:59.965Z,0.70
2017-12-01T07:49:25.925Z,0.60
2017-12-01T07:51:51.930Z,0.60
2017-12-01T07:54:17.889Z,0.60
2017-12-01T07:56:43.842Z,0.60
2017-12-01T07:59:09.845Z,0.60
2017-12-01T08:01:35.865Z,0.60
2017-12-01T08:04:01.873Z,0.50
2017-12-01T08:06:27.869Z,0.50
2017-12-01T08:08:53.884Z,0.50
2017-12-01T08:11:19.855Z,0.50
2017-12-01T08:13:45.820Z,0.50
2017-12-01T08:16:25.217Z,0.40
2017-12-01T08:18:51.180Z,0.40
2017-12-01T08:21:17.959Z,0.40
2017-12-01T08:23:56.467Z,0.40
2017-12-01T08:26:22.472Z,0.50
2017-12-01T08:28:48.452Z,0.50
2017-12-01T08:31:14.432Z,0.50
2017-12-01T08:33:40.413Z,0.50
2017-12-01T08:36:06.386Z,0.50
2017-12-01T08:38:33.143Z,0.60
2017-12-01T08:40:59.842Z,0.70
2017-12-01T08:43:25.828Z,0.70
2017-12-01T08:45:52.561Z,0.80
2017-12-01T08:48:18.546Z,0.80
2017-12-01T08:50:44.497Z,0.90
2017-12-01T08:53:10.501Z,0.80
2017-12-01T08:55:37.212Z,1.00
2017-12-01T08:58:03.156Z,1.00
2017-12-01T09:00:29.136Z,1.10
2017-12-01T09:02:55.177Z,1.20
2017-12-01T09:05:21.160Z,1.10
2017-12-01T09:07:47.144Z,1.20
2017-12-01T09:10:13.112Z,1.20
2017-12-01T09:12:39.061Z,1.20
2017-12-01T09:15:05.077Z,1.30
2017-12-01T09:17:31.037Z,1.30
2017-12-01T09:19:57.026Z,1.50
2017-12-01T09:22:23.054Z,1.50
2017-12-01T09:24:49.121Z,1.50
2017-12-01T09:27:15.123Z,1.50
2017-12-01T09:29:41.813Z,1.60
2017-12-01T09:32:07.833Z,1.50
2017-12-01T09:34:33.778Z,1.60
2017-12-01T09:36:59.777Z,1.70
2017-12-01T09:39:26.491Z,1.80
2017-12-01T09:41:52.486Z,1.80
2017-12-01T09:44:18.470Z,1.80
2017-12-01T09:46:44.419Z,1.80
2017-12-01T09:49:10.455Z,1.90
2017-12-01T09:51:36.418Z,2.00
2017-12-01T09:54:03.136Z,2.20
2017-12-01T09:56:29.153Z,2.20
2017-12-01T09:58:55.092Z,2.20
2017-12-01T10:01:21.098Z,2.30
2017-12-01T10:03:47.124Z,2.30
2017-12-01T10:06:13.070Z,2.30
2017-12-01T10:08:39.060Z,2.40
2017-12-01T10:11:05.059Z,2.50
2017-12-01T10:13:31.060Z,2.50
2017-12-01T10:15:57.025Z,2.50
2017-12-01T10:18:22.987Z,2.60
2017-12-01T10:20:48.973Z,2.70
2017-12-01T10:23:14.961Z,2.70
2017-12-01T10:25:40.909Z,2.80
2017-12-01T10:28:06.866Z,2.60
2017-12-01T10:30:33.777Z,2.60
2017-12-01T10:32:59.709Z,2.60
2017-12-01T10:35:25.652Z,2.50
2017-12-01T10:37:51.653Z,2.50
2017-12-01T10:40:17.589Z,2.70
2017-12-01T10:42:43.560Z,2.70
2017-12-01T10:45:09.500Z,2.90
2017-12-01T10:47:35.586Z,2.80
2017-12-01T10:50:01.545Z,2.80
2017-12-01T10:52:27.530Z,2.80
2017-12-01T10:54:53.599Z,2.80
2017-12-01T10:57:19.782Z,2.80
2017-12-01T10:59:45.816Z,2.80
2017-12-01T11:02:11.929Z,2.90
2017-12-01T11:04:37.948Z,2.90
2017-12-01T11:07:03.957Z,3.10
2017-12-01T11:09:29.915Z,3.00
2017-12-01T11:11:55.912Z,3.10
2017-12-01T11:14:21.918Z,3.10
2017-12-01T11:16:47.864Z,3.10
2017-12-01T11:19:13.852Z,3.30
2017-12-01T11:21:40.628Z,3.50
2017-12-01T11:24:06.632Z,3.40
2017-12-01T11:26:33.359Z,3.60
2017-12-01T11:28:59.312Z,3.50
2017-12-01T11:31:25.305Z,3.40
2017-12-01T11:33:51.284Z,3.40
2017-12-01T11:36:17.300Z,3.60
2017-12-01T11:38:43.337Z,3.60
2017-12-01T11:41:09.276Z,3.80
2017-12-01T11:43:35.248Z,4.10
2017-12-01T11:46:01.969Z,4.40
2017-12-01T11:48:27.981Z,4.40
2017-12-01T11:50:53.968Z,4.40
2017-12-01T11:53:20.715Z,4.70
2017-12-01T11:55:47.397Z,4.90
2017-12-01T11:58:13.372Z,4.90
2017-12-01T12:00:40.333Z,5.00
2017-12-01T12:03:06.357Z,4.50
2017-12-01T12:05:33.008Z,4.50
2017-12-01T12:07:58.995Z,4.50
2017-12-01T12:10:25.711Z,4.50
2017-12-01T12:12:51.743Z,4.50
2017-12-01T12:15:18.424Z,4.70
2017-12-01T12:17:44.353Z,4.70
2017-12-01T12:20:10.289Z,4.60
2017-12-01T12:22:36.264Z,4.60
2017-12-01T12:25:02.208Z,4.70
2017-12-01T12:27:28.161Z,4.50
2017-12-01T12:29:54.114Z,4.00
2017-12-01T12:32:20.136Z,3.80
2017-12-01T12:34:46.116Z,3.70
2017-12-01T12:37:12.821Z,3.80
2017-12-01T12:39:38.816Z,3.80
2017-12-01T12:42:05.496Z,3.70
2017-12-01T12:44:31.439Z,3.70
2017-12-01T12:46:57.437Z,3.70
2017-12-01T12:49:24.181Z,3.60
2017-12-01T12:51:50.200Z,3.60
2017-12-01T12:54:16.137Z,3.50
2017-12-01T12:56:42.143Z,3.50
2017-12-01T12:59:08.145Z,3.40
2017-12-01T13:01:34.899Z,3.30
2017-12-01T13:04:00.849Z,3.30
2017-12-01T13:06:26.852Z,3.20
2017-12-01T13:08:52.837Z,3.20
2017-12-01T13:11:18.780Z,3.10
2017-12-01T13:13:44.765Z,3.30
2017-12-01T13:16:11.464Z,3.10
2017-12-01T13:18:37.412Z,3.10
2017-12-01T13:21:03.389Z,3.20
2017-12-01T13:23:30.065Z,3.30
2017-12-01T13:25:56.037Z,3.30
2017-12-01T13:28:22.019Z,3.20
2017-12-01T13:30:47.928Z,3.20
2017-12-01T13:33:13.913Z,3.30
2017-12-01T13:35:39.855Z,3.20
2017-12-01T13:38:05.855Z,3.20
2017-12-01T13:40:32.592Z,3.00
2017-12-01T13:42:58.525Z,2.90
2017-12-01T13:45:24.506Z,2.90
2017-12-01T13:47:50.497Z,3.00
2017-12-01T13:50:16.501Z,3.00
2017-12-01T13:52:42.440Z,3.10
2017-12-01T13:55:08.404Z,3.10
2017-12-01T13:57:35.136Z,3.00
2017-12-01T14:00:01.073Z,3.00
2017-12-01T14:02:27.063Z,3.00
2017-12-01T14:04:53.074Z,3.00
2017-12-01T14:07:19.031Z,2.90
2017-12-01T14:09:45.013Z,2.80
2017-12-01T14:12:10.993Z,2.80
2017-12-01T14:14:37.780Z,2.80
2017-12-01T14:17:03.756Z,2.80
2017-12-01T14:19:29.785Z,2.80
2017-12-01T14:21:55.869Z,2.90
2017-12-01T14:24:22.632Z,2.90
2017-12-01T14:26:48.649Z,2.90
2017-12-01T14:29:15.328Z,2.80
2017-12-01T14:31:41.260Z,2.80
2017-12-01T14:34:07.249Z,2.70
2017-12-01T14:36:33.242Z,2.70
2017-12-01T14:38:59.233Z,2.80
2017-12-01T14:41:25.996Z,2.70
2017-12-01T14:43:52.742Z,2.80
2017-12-01T14:46:19.514Z,2.70
2017-12-01T14:48:46.250Z,2.60
2017-12-01T14:51:12.237Z,2.70
2017-12-01T14:53:38.221Z,2.70
2017-12-01T14:56:04.169Z,2.70
2017-12-01T14:58:30.192Z,2.70
2017-12-01T15:00:56.900Z,2.70
2017-12-01T15:03:22.904Z,2.70
2017-12-01T15:05:48.906Z,2.60
2017-12-01T15:08:14.849Z,2.60
2017-12-01T15:10:40.855Z,2.40
2017-12-01T15:13:06.845Z,2.30
2017-12-01T15:15:33.533Z,2.30
2017-12-01T15:17:59.581Z,2.30
2017-12-01T15:20:26.297Z,2.40
2017-12-01T15:22:52.273Z,2.40
2017-12-01T15:25:18.248Z,2.40
2017-12-01T15:27:44.976Z,2.40
2017-12-01T15:30:11.004Z,2.40
2017-12-01T15:32:37.037Z,2.50
2017-12-01T15:35:02.988Z,2.50
2017-12-01T15:37:28.944Z,2.40
2017-12-01T15:39:55.710Z,2.40
2017-12-01T15:42:22.450Z,2.30
2017-12-01T15:44:49.192Z,2.30
2017-12-01T15:47:15.216Z,2.30
2017-12-01T15:49:41.252Z,2.30
2017-12-01T15:52:07.236Z,2.40
2017-12-01T15:54:33.208Z,2.30
2017-12-01T15:56:59.169Z,2.40
2017-12-01T15:59:25.153Z,2.50
2017-12-01T16:01:51.937Z,2.40
2017-12-01T16:04:17.884Z,2.40
2017-12-01T16:06:43.844Z,2.50
2017-12-01T16:09:09.785Z,2.40
2017-12-01T16:11:36.596Z,2.40
2017-12-01T16:14:02.521Z,2.30
2017-12-01T16:16:28.473Z,2.40
2017-12-01T16:18:54.460Z,2.30
2017-12-01T16:21:21.260Z,2.20
2017-12-01T16:23:47.205Z,2.20
2017-12-01T16:26:13.208Z,2.20
2017-12-01T16:28:39.173Z,2.30
2017-12-01T16:31:05.124Z,2.30
2017-12-01T16:33:31.193Z,2.40
2017-12-01T16:35:57.890Z,2.30
2017-12-01T16:38:23.889Z,2.30
2017-12-01T16:40:49.858Z,2.20
2017-12-01T16:43:15.816Z,2.20
2017-12-01T16:45:41.804Z,2.20
2017-12-01T16:48:07.803Z,2.20
2017-12-01T16:50:34.541Z,2.20
2017-12-01T16:53:00.501Z,2.20
2017-12-01T16:55:27.212Z,2.20
2017-12-01T16:57:53.216Z,2.20
2017-12-01T17:00:19.157Z,2.30
2017-12-01T17:02:45.174Z,2.40
2017-12-01T17:05:11.121Z,2.40
2017-12-01T17:07:37.560Z,2.50
2017-12-01T17:10:03.537Z,2.50
2017-12-01T17:12:29.509Z,2.40
2017-12-01T17:14:55.496Z,2.30
2017-12-01T17:17:21.488Z,2.30
2017-12-01T17:19:48.208Z,2.20
2017-12-01T17:22:14.200Z,2.20
2017-12-01T17:24:40.140Z,2.20
2017-12-01T17:27:06.128Z,2.30
2017-12-01T17:29:32.129Z,2.20
2017-12-01T17:31:58.112Z,2.20
2017-12-01T17:34:24.125Z,2.30
2017-12-01T17:36:50.117Z,2.30
2017-12-01T17:39:16.130Z,2.30
2017-12-01T17:41:42.879Z,2.10
2017-12-01T17:44:08.894Z,2.10
2017-12-01T17:46:34.844Z,2.00
2017-12-01T17:49:00.840Z,2.10
2017-12-01T17:51:26.836Z,2.10
2017-12-01T17:53:53.580Z,2.10
2017-12-01T17:56:19.573Z,2.00
2017-12-01T17:58:45.543Z,2.10
2017-12-01T18:01:11.493Z,2.10
2017-12-01T18:03:38.271Z,2.10
2017-12-01T18:06:04.218Z,2.10
2017-12-01T18:08:30.159Z,2.10
2017-12-01T18:10:56.146Z,2.10
2017-12-01T18:13:22.098Z,2.10
2017-12-01T18:15:48.785Z,2.00
2017-12-01T18:18:14.769Z,2.00
2017-12-01T18:20:40.775Z,2.00
2017-12-01T18:23:06.789Z,2.10
2017-12-01T18:25:32.791Z,2.10
2017-12-01T18:27:59.540Z,2.10
2017-12-01T18:30:26.240Z,2.20
2017-12-01T18:32:52.237Z,2.10
2017-12-01T18:35:18.933Z,2.10
2017-12-01T18:37:44.908Z,2.00
2017-12-01T18:40:10.845Z,2.00
2017-12-01T18:42:37.624Z,2.00
2017-12-01T18:45:03.578Z,2.10
2017-12-01T18:47:29.541Z,2.10
2017-12-01T18:49:55.532Z,2.20
2017-12-01T18:52:21.555Z,2.40
2017-12-01T18:54:48.305Z,2.10
2017-12-01T18:57:14.989Z,2.00
2017-12-01T18:59:40.992Z,1.90
2017-12-01T19:02:07.689Z,1.90
2017-12-01T19:04:33.620Z,1.90
2017-12-01T19:06:59.600Z,1.90
2017-12-01T19:09:25.536Z,2.10
2017-12-01T19:11:51.568Z,2.10
2017-12-01T19:14:17.528Z,2.10
2017-12-01T19:16:44.257Z,2.10
2017-12-01T19:19:10.224Z,2.00
2017-12-01T19:21:36.225Z,2.20
2017-12-01T19:24:02.245Z,2.20
2017-12-01T19:26:28.277Z,2.10
2017-12-01T19:28:54.265Z,2.10
2017-12-01T19:31:20.977Z,2.20
2017-12-01T19:33:46.944Z,2.20
2017-12-01T19:36:12.939Z,2.20
2017-12-01T19:38:38.979Z,2.20
2017-12-01T19:41:04.933Z,2.20
2017-12-01T19:43:31.652Z,2.30
2017-12-01T19:45:57.620Z,2.30
2017-12-01T19:48:23.631Z,2.20
2017-12-01T19:50:49.653Z,2.20
2017-12-01T19:53:15.628Z,2.20
2017-12-01T19:55:41.597Z,2.30
2017-12-01T19:58:08.364Z,2.20
2017-12-01T20:00:34.361Z,2.20
2017-12-01T20:03:00.336Z,2.20
2017-12-01T20:05:26.336Z,2.10
2017-12-01T20:07:52.304Z,2.20
2017-12-01T20:10:18.257Z,2.20
2017-12-01T20:12:44.256Z,2.20
2017-12-01T20:15:10.272Z,2.40
2017-12-01T20:17:37.016Z,2.30
2017-12-01T20:20:03.041Z,2.30
2017-12-01T20:22:29.017Z,2.20
2017-12-01T20:24:55.735Z,2.30
2017-12-01T20:27:21.729Z,2.30
2017-12-01T20:29:47.744Z,2.40
2017-12-01T20:32:14.445Z,2.20
2017-12-01T20:34:40.535Z,2.20
2017-12-01T20:37:07.296Z,2.20
2017-12-01T20:39:33.991Z,2.10
2017-12-01T20:41:59.933Z,2.10
2017-12-01T20:44:25.956Z,2.00
2017-12-01T20:46:51.920Z,2.10
2017-12-01T20:49:17.861Z,1.90
2017-12-01T20:51:43.945Z,2.00
2017-12-01T20:54:09.959Z,2.10
2017-12-01T20:56:36.676Z,2.00
2017-12-01T20:59:02.621Z,2.00
2017-12-01T21:01:28.598Z,2.10
2017-12-01T21:03:55.312Z,2.30
2017-12-01T21:06:21.293Z,2.20
2017-12-01T21:08:47.285Z,2.30
2017-12-01T21:11:13.297Z,2.20
2017-12-01T21:13:39.269Z,2.10
2017-12-01T21:16:05.248Z,2.10
2017-12-01T21:18:31.228Z,2.20
2017-12-01T21:20:57.191Z,2.10
2017-12-01T21:23:23.955Z,2.20
2017-12-01T21:25:49.925Z,2.20
2017-12-01T21:28:15.876Z,2.30
2017-12-01T21:30:41.855Z,2.30
2017-12-01T21:33:08.604Z,2.20
2017-12-01T21:35:35.345Z,2.10
2017-12-01T21:38:01.335Z,2.10
2017-12-01T21:40:27.300Z,2.10
2017-12-01T21:42:53.312Z,2.10
2017-12-01T21:45:19.345Z,2.10
2017-12-01T21:47:45.312Z,2.10
2017-12-01T21:50:11.344Z,2.10
2017-12-01T21:52:37.404Z,2.10
2017-12-01T21:55:03.352Z,2.10
2017-12-01T21:57:30.072Z,2.00
2017-12-01T21:59:56.116Z,2.00
2017-12-01T22:02:22.117Z,2.10
2017-12-01T22:04:48.084Z,2.10
2017-12-01T22:07:14.057Z,2.10
2017-12-01T22:09:40.012Z,2.20
2017-12-01T22:12:05.965Z,2.20
2017-12-01T22:14:31.956Z,2.20
2017-12-01T22:16:57.924Z,2.40
2017-12-01T22:19:23.917Z,2.50
2017-12-01T22:21:50.752Z,2.30
2017-12-01T22:24:16.753Z,2.30
2017-12-01T22:26:42.724Z,2.20
2017-12-01T22:29:08.724Z,2.20
2017-12-01T22:31:34.684Z,2.20
2017-12-01T22:34:00.671Z,2.30
2017-12-01T22:36:27.377Z,2.30
2017-12-01T22:38:53.357Z,2.30
2017-12-01T22:41:20.119Z,2.10
2017-12-01T22:43:46.813Z,2.20
2017-12-01T22:46:12.773Z,2.20
2017-12-01T22:48:38.813Z,2.20
2017-12-01T22:51:04.783Z,2.20
2017-12-01T22:53:31.545Z,2.40
2017-12-01T22:55:58.232Z,2.40
2017-12-01T22:58:24.212Z,2.40
2017-12-01T23:00:50.208Z,2.30
2017-12-01T23:03:16.153Z,2.30
2017-12-01T23:05:42.112Z,2.30
2017-12-01T23:08:09.664Z,2.50
2017-12-01T23:10:35.627Z,2.60
2017-12-01T23:13:01.570Z,2.70
2017-12-01T23:15:28.300Z,2.40
2017-12-01T23:17:54.336Z,2.40
2017-12-01T23:20:20.357Z,2.30
2017-12-01T23:22:46.315Z,2.20
2017-12-01T23:25:12.284Z,2.20
2017-12-01T23:27:38.968Z,2.20
2017-12-01T23:30:04.960Z,2.20
2017-12-01T23:32:31.657Z,2.40
2017-12-01T23:34:57.642Z,2.40
2017-12-01T23:37:24.421Z,2.30
2017-12-01T23:39:50.420Z,2.30
2017-12-01T23:42:17.112Z,2.20
2017-12-01T23:44:43.096Z,2.10
2017-12-01T23:47:09.828Z,2.30
2017-12-01T23:49:35.817Z,2.30
2017-12-01T23:52:02.537Z,2.20
2017-12-01T23:54:28.492Z,2.20
2017-12-01T23:56:54.513Z,2.20
2017-12-01T23:59:20.509Z,2.30
